ASA249 PANC-PAFA
Flight info
| Callsign | ASA249 |
|---|---|
| Flight time | 0h 39m |
| Altitude | 30000 |
| Route | CAWIN LIBER5 |
| Aircraft | B737/M-SDE2E3FGHIRWXY/LB1 |
Departure
| Time | 2026-04-25 07:24 |
|---|---|
| Airport | Ted Stevens Anchorage International Airport (PANC) |
Arrival
| Time | 2026-04-25 08:03 |
|---|---|
| Airport | Fairbanks International Airport (PAFA) |
| Time | Latitude | Longitude | Altitude | Speed | Heading |
|---|---|---|---|---|---|
| 2026-04-25 06:54 | 61.17575 | -149.98489 | 109 ft | 0 kts | 105° |
| 2026-04-25 07:15 | 61.17579 | -149.98522 | 108 ft | 4 kts | 105° |
| 2026-04-25 07:15 | 61.17586 | -149.98576 | 105 ft | 4 kts | 102° |
| 2026-04-25 07:15 | 61.17589 | -149.98630 | 103 ft | 4 kts | 86° |
| 2026-04-25 07:16 | 61.17587 | -149.98673 | 103 ft | 4 kts | 143° |
| 2026-04-25 07:16 | 61.17606 | -149.98691 | 102 ft | 3 kts | 157° |
| 2026-04-25 07:16 | 61.17609 | -149.98694 | 103 ft | 0 kts | 158° |
| 2026-04-25 07:19 | 61.17601 | -149.98688 | 101 ft | 4 kts | 160° |
| 2026-04-25 07:20 | 61.17556 | -149.98654 | 104 ft | 10 kts | 160° |
| 2026-04-25 07:20 | 61.17491 | -149.98605 | 106 ft | 10 kts | 160° |
| 2026-04-25 07:20 | 61.17427 | -149.98566 | 107 ft | 9 kts | 177° |
| 2026-04-25 07:20 | 61.17370 | -149.98624 | 109 ft | 9 kts | 214° |
| 2026-04-25 07:21 | 61.17309 | -149.98709 | 108 ft | 12 kts | 213° |
| 2026-04-25 07:21 | 61.17240 | -149.98802 | 111 ft | 12 kts | 216° |
| 2026-04-25 07:21 | 61.17185 | -149.98923 | 112 ft | 11 kts | 230° |
| 2026-04-25 07:21 | 61.17136 | -149.99049 | 105 ft | 11 kts | 239° |
| 2026-04-25 07:22 | 61.17125 | -149.99203 | 117 ft | 11 kts | 270° |
| 2026-04-25 07:22 | 61.17125 | -149.99396 | 121 ft | 14 kts | 270° |
| 2026-04-25 07:22 | 61.17125 | -149.99598 | 125 ft | 14 kts | 270° |
| 2026-04-25 07:22 | 61.17127 | -149.99791 | 128 ft | 13 kts | 280° |
| 2026-04-25 07:23 | 61.17193 | -149.99896 | 136 ft | 13 kts | 345° |
| 2026-04-25 07:23 | 61.17383 | -150.00001 | 132 ft | 60 kts | 344° |
| 2026-04-25 07:23 | 61.18035 | -150.00367 | 123 ft | 130 kts | 345° |
| 2026-04-25 07:23 | 61.19057 | -150.00941 | 410 ft | 159 kts | 345° |
| 2026-04-25 07:24 | 61.20086 | -150.01634 | 1290 ft | 158 kts | 333° |
| 2026-04-25 07:24 | 61.21026 | -150.03062 | 1728 ft | 181 kts | 317° |
| 2026-04-25 07:24 | 61.22009 | -150.05052 | 2046 ft | 211 kts | 315° |
| 2026-04-25 07:24 | 61.23179 | -150.07233 | 2266 ft | 242 kts | 331° |
| 2026-04-25 07:25 | 61.24868 | -150.07925 | 2729 ft | 257 kts | 10° |
| 2026-04-25 07:25 | 61.26634 | -150.07093 | 3482 ft | 264 kts | 18° |
| 2026-04-25 07:25 | 61.28429 | -150.06060 | 4261 ft | 271 kts | 19° |
| 2026-04-25 07:25 | 61.30276 | -150.04990 | 5148 ft | 280 kts | 20° |
| 2026-04-25 07:26 | 61.32180 | -150.03913 | 6250 ft | 287 kts | 18° |
| 2026-04-25 07:26 | 61.34123 | -150.02847 | 7352 ft | 290 kts | 17° |
| 2026-04-25 07:26 | 61.36083 | -150.01800 | 8503 ft | 292 kts | 15° |
| 2026-04-25 07:26 | 61.38083 | -150.00750 | 9474 ft | 301 kts | 14° |
| 2026-04-25 07:27 | 61.40147 | -149.99681 | 10372 ft | 310 kts | 14° |
| 2026-04-25 07:27 | 61.42305 | -149.98572 | 11021 ft | 327 kts | 14° |
| 2026-04-25 07:27 | 61.44536 | -149.97431 | 11918 ft | 333 kts | 14° |
| 2026-04-25 07:27 | 61.46798 | -149.96279 | 12969 ft | 336 kts | 14° |
| 2026-04-25 07:28 | 61.49081 | -149.95119 | 14052 ft | 339 kts | 14° |
| 2026-04-25 07:28 | 61.51389 | -149.93947 | 14934 ft | 345 kts | 14° |
| 2026-04-25 07:28 | 61.53744 | -149.92751 | 15743 ft | 352 kts | 14° |
| 2026-04-25 07:28 | 61.56145 | -149.91529 | 16592 ft | 358 kts | 14° |
| 2026-04-25 07:29 | 61.58591 | -149.90284 | 17456 ft | 365 kts | 14° |
| 2026-04-25 07:29 | 61.61078 | -149.89017 | 18305 ft | 371 kts | 15° |
| 2026-04-25 07:29 | 61.63608 | -149.87724 | 19065 ft | 377 kts | 15° |
| 2026-04-25 07:29 | 61.66184 | -149.86406 | 19764 ft | 385 kts | 15° |
| 2026-04-25 07:30 | 61.68826 | -149.85051 | 20340 ft | 396 kts | 15° |
| 2026-04-25 07:30 | 61.71524 | -149.83665 | 21077 ft | 402 kts | 15° |
| 2026-04-25 07:30 | 61.74260 | -149.82259 | 21824 ft | 408 kts | 16° |
| 2026-04-25 07:30 | 61.77043 | -149.80825 | 22529 ft | 415 kts | 16° |
| 2026-04-25 07:31 | 61.79870 | -149.79367 | 23194 ft | 422 kts | 16° |
| 2026-04-25 07:31 | 61.82748 | -149.77879 | 23864 ft | 428 kts | 17° |
| 2026-04-25 07:31 | 61.85662 | -149.76368 | 24404 ft | 435 kts | 17° |
| 2026-04-25 07:31 | 61.88633 | -149.74828 | 24922 ft | 442 kts | 17° |
| 2026-04-25 07:32 | 61.91599 | -149.73286 | 25460 ft | 448 kts | 17° |
| 2026-04-25 07:32 | 61.94686 | -149.71678 | 25997 ft | 454 kts | 17° |
| 2026-04-25 07:32 | 61.97738 | -149.70081 | 26520 ft | 460 kts | 17° |
| 2026-04-25 07:32 | 62.00851 | -149.68450 | 27189 ft | 462 kts | 17° |
| 2026-04-25 07:33 | 62.03977 | -149.66813 | 27880 ft | 464 kts | 17° |
| 2026-04-25 07:33 | 62.07122 | -149.65162 | 28514 ft | 467 kts | 17° |
| 2026-04-25 07:33 | 62.10290 | -149.63496 | 29200 ft | 470 kts | 17° |
| 2026-04-25 07:33 | 62.13473 | -149.61821 | 29834 ft | 472 kts | 17° |
| 2026-04-25 07:34 | 62.16668 | -149.60127 | 30435 ft | 474 kts | 17° |
| 2026-04-25 07:34 | 62.19862 | -149.58432 | 31069 ft | 472 kts | 17° |
| 2026-04-25 07:34 | 62.23034 | -149.56751 | 31843 ft | 467 kts | 17° |
| 2026-04-25 07:34 | 62.26188 | -149.55077 | 32145 ft | 468 kts | 17° |
| 2026-04-25 07:35 | 62.32530 | -149.51691 | 32129 ft | 466 kts | 17° |
| 2026-04-25 07:35 | 62.38794 | -149.48339 | 32142 ft | 463 kts | 17° |
| 2026-04-25 07:36 | 62.45034 | -149.44976 | 32152 ft | 461 kts | 18° |
| 2026-04-25 07:36 | 62.51261 | -149.41603 | 32149 ft | 462 kts | 18° |
| 2026-04-25 07:37 | 62.57489 | -149.38213 | 32116 ft | 462 kts | 18° |
| 2026-04-25 07:37 | 62.63735 | -149.34779 | 32165 ft | 465 kts | 18° |
| 2026-04-25 07:38 | 62.70060 | -149.31301 | 31796 ft | 473 kts | 18° |
| 2026-04-25 07:38 | 62.73260 | -149.29540 | 31371 ft | 478 kts | 18° |
| 2026-04-25 07:38 | 62.76509 | -149.27749 | 30904 ft | 487 kts | 18° |
| 2026-04-25 07:39 | 62.79772 | -149.25945 | 30419 ft | 493 kts | 18° |
| 2026-04-25 07:39 | 62.83110 | -149.24100 | 29798 ft | 495 kts | 18° |
| 2026-04-25 07:39 | 62.86451 | -149.22254 | 29270 ft | 493 kts | 18° |
| 2026-04-25 07:39 | 62.89763 | -149.20421 | 28778 ft | 489 kts | 17° |
| 2026-04-25 07:40 | 62.93047 | -149.18597 | 28381 ft | 486 kts | 18° |
| 2026-04-25 07:40 | 62.96335 | -149.16761 | 27900 ft | 488 kts | 18° |
| 2026-04-25 07:40 | 62.99636 | -149.14909 | 27468 ft | 490 kts | 18° |
| 2026-04-25 07:40 | 63.02938 | -149.13045 | 26961 ft | 489 kts | 17° |
| 2026-04-25 07:41 | 63.06230 | -149.11211 | 26513 ft | 487 kts | 17° |
| 2026-04-25 07:41 | 63.09507 | -149.09369 | 26036 ft | 485 kts | 17° |
| 2026-04-25 07:41 | 63.12760 | -149.07531 | 25577 ft | 482 kts | 17° |
| 2026-04-25 07:41 | 63.16002 | -149.05693 | 25132 ft | 480 kts | 17° |
| 2026-04-25 07:42 | 63.19231 | -149.03858 | 24628 ft | 477 kts | 17° |
| 2026-04-25 07:42 | 63.22423 | -149.02027 | 24153 ft | 470 kts | 17° |
| 2026-04-25 07:42 | 63.25557 | -149.00231 | 23693 ft | 462 kts | 17° |
| 2026-04-25 07:42 | 63.28646 | -148.98477 | 23182 ft | 455 kts | 17° |
| 2026-04-25 07:43 | 63.31683 | -148.96710 | 22637 ft | 448 kts | 17° |
| 2026-04-25 07:43 | 63.34652 | -148.94908 | 22223 ft | 437 kts | 18° |
| 2026-04-25 07:43 | 63.37566 | -148.93109 | 21751 ft | 433 kts | 18° |
| 2026-04-25 07:43 | 63.40455 | -148.91316 | 21277 ft | 429 kts | 18° |
| 2026-04-25 07:44 | 63.43320 | -148.89527 | 20816 ft | 426 kts | 18° |
| 2026-04-25 07:44 | 63.46163 | -148.87764 | 20368 ft | 423 kts | 17° |
| 2026-04-25 07:44 | 63.48990 | -148.86017 | 19914 ft | 420 kts | 17° |
| 2026-04-25 07:44 | 63.51791 | -148.84256 | 19514 ft | 416 kts | 17° |
| 2026-04-25 07:45 | 63.54571 | -148.82534 | 19103 ft | 413 kts | 17° |
| 2026-04-25 07:45 | 63.57323 | -148.80844 | 18720 ft | 409 kts | 16° |
| 2026-04-25 07:45 | 63.60069 | -148.79158 | 18168 ft | 409 kts | 16° |
| 2026-04-25 07:45 | 63.62796 | -148.77473 | 17714 ft | 405 kts | 16° |
| 2026-04-25 07:46 | 63.65494 | -148.75796 | 17305 ft | 400 kts | 16° |
| 2026-04-25 07:46 | 63.68125 | -148.74154 | 16915 ft | 395 kts | 16° |
| 2026-04-25 07:46 | 63.70758 | -148.72507 | 16511 ft | 391 kts | 16° |
| 2026-04-25 07:46 | 63.73363 | -148.70876 | 16144 ft | 386 kts | 16° |
| 2026-04-25 07:47 | 63.75973 | -148.69233 | 15761 ft | 382 kts | 16° |
| 2026-04-25 07:47 | 63.78487 | -148.67649 | 15391 ft | 378 kts | 16° |
| 2026-04-25 07:47 | 63.81015 | -148.66115 | 15021 ft | 375 kts | 15° |
| 2026-04-25 07:47 | 63.83515 | -148.64554 | 14623 ft | 371 kts | 16° |
| 2026-04-25 07:48 | 63.85984 | -148.62953 | 14278 ft | 367 kts | 18° |
| 2026-04-25 07:48 | 63.88419 | -148.61279 | 13891 ft | 364 kts | 17° |
| 2026-04-25 07:48 | 63.90854 | -148.59742 | 13474 ft | 362 kts | 16° |
| 2026-04-25 07:48 | 63.93270 | -148.58242 | 13110 ft | 358 kts | 15° |
| 2026-04-25 07:49 | 63.95659 | -148.56746 | 12724 ft | 355 kts | 16° |
| 2026-04-25 07:49 | 63.98027 | -148.55247 | 12352 ft | 352 kts | 15° |
| 2026-04-25 07:49 | 64.00379 | -148.53747 | 11976 ft | 350 kts | 15° |
| 2026-04-25 07:49 | 64.02720 | -148.52253 | 11593 ft | 348 kts | 15° |
| 2026-04-25 07:50 | 64.05046 | -148.50761 | 11213 ft | 346 kts | 15° |
| 2026-04-25 07:50 | 64.07346 | -148.49304 | 10903 ft | 339 kts | 15° |
| 2026-04-25 07:50 | 64.09595 | -148.47844 | 10534 ft | 331 kts | 15° |
| 2026-04-25 07:50 | 64.11775 | -148.46413 | 10169 ft | 321 kts | 15° |
| 2026-04-25 07:51 | 64.13876 | -148.45043 | 9949 ft | 306 kts | 14° |
| 2026-04-25 07:51 | 64.15869 | -148.43748 | 9830 ft | 291 kts | 14° |
| 2026-04-25 07:51 | 64.17830 | -148.42476 | 9357 ft | 293 kts | 15° |
| 2026-04-25 07:51 | 64.19782 | -148.41207 | 9019 ft | 291 kts | 15° |
| 2026-04-25 07:52 | 64.21727 | -148.39939 | 8659 ft | 290 kts | 15° |
| 2026-04-25 07:52 | 64.23658 | -148.38680 | 8341 ft | 287 kts | 16° |
| 2026-04-25 07:52 | 64.25568 | -148.37431 | 8018 ft | 284 kts | 16° |
| 2026-04-25 07:52 | 64.27460 | -148.36192 | 7718 ft | 282 kts | 16° |
| 2026-04-25 07:53 | 64.29336 | -148.34962 | 7406 ft | 279 kts | 17° |
| 2026-04-25 07:53 | 64.31170 | -148.33759 | 7128 ft | 276 kts | 17° |
| 2026-04-25 07:53 | 64.33037 | -148.32531 | 6825 ft | 274 kts | 17° |
| 2026-04-25 07:53 | 64.34862 | -148.31329 | 6528 ft | 272 kts | 17° |
| 2026-04-25 07:54 | 64.36684 | -148.30136 | 6173 ft | 272 kts | 17° |
| 2026-04-25 07:54 | 64.38477 | -148.28966 | 5827 ft | 271 kts | 17° |
| 2026-04-25 07:54 | 64.40289 | -148.27783 | 5485 ft | 270 kts | 17° |
| 2026-04-25 07:54 | 64.42092 | -148.26603 | 5152 ft | 269 kts | 18° |
| 2026-04-25 07:55 | 64.43892 | -148.25473 | 4844 ft | 267 kts | 13° |
| 2026-04-25 07:55 | 64.45712 | -148.25072 | 4695 ft | 259 kts | 3° |
| 2026-04-25 07:55 | 64.47486 | -148.24998 | 4525 ft | 252 kts | 2° |
| 2026-04-25 07:55 | 64.49232 | -148.24947 | 4375 ft | 251 kts | 2° |
| 2026-04-25 07:56 | 64.50389 | -148.24902 | 4290 ft | 251 kts | 2° |
| 2026-04-25 07:56 | 64.52139 | -148.24808 | 4154 ft | 253 kts | 3° |
| 2026-04-25 07:56 | 64.53901 | -148.24692 | 4027 ft | 254 kts | 3° |
| 2026-04-25 07:56 | 64.55663 | -148.24562 | 3897 ft | 253 kts | 4° |
| 2026-04-25 07:57 | 64.57418 | -148.24428 | 3765 ft | 252 kts | 4° |
| 2026-04-25 07:57 | 64.59164 | -148.24292 | 3637 ft | 251 kts | 4° |
| 2026-04-25 07:57 | 64.60863 | -148.23620 | 3485 ft | 248 kts | 27° |
| 2026-04-25 07:57 | 64.62283 | -148.21425 | 3383 ft | 245 kts | 39° |
| 2026-04-25 07:58 | 64.63627 | -148.18985 | 3255 ft | 246 kts | 39° |
| 2026-04-25 07:58 | 64.64968 | -148.16522 | 3130 ft | 245 kts | 39° |
| 2026-04-25 07:58 | 64.66301 | -148.14079 | 2994 ft | 243 kts | 39° |
| 2026-04-25 07:58 | 64.67628 | -148.11654 | 2861 ft | 241 kts | 39° |
| 2026-04-25 07:59 | 64.68929 | -148.09317 | 2753 ft | 230 kts | 37° |
| 2026-04-25 07:59 | 64.70183 | -148.07151 | 2681 ft | 218 kts | 38° |
| 2026-04-25 07:59 | 64.71351 | -148.05035 | 2605 ft | 206 kts | 39° |
| 2026-04-25 07:59 | 64.72424 | -148.03053 | 2449 ft | 187 kts | 39° |
| 2026-04-25 08:00 | 64.73399 | -148.01251 | 2250 ft | 171 kts | 40° |
| 2026-04-25 08:00 | 64.74296 | -147.99590 | 2035 ft | 158 kts | 39° |
| 2026-04-25 08:00 | 64.75121 | -147.98071 | 1800 ft | 143 kts | 38° |
| 2026-04-25 08:00 | 64.75863 | -147.96701 | 1590 ft | 129 kts | 37° |
| 2026-04-25 08:01 | 64.76547 | -147.95439 | 1417 ft | 124 kts | 36° |
| 2026-04-25 08:01 | 64.77221 | -147.94183 | 1282 ft | 125 kts | 36° |
| 2026-04-25 08:01 | 64.77916 | -147.92925 | 1111 ft | 125 kts | 37° |
| 2026-04-25 08:01 | 64.78603 | -147.91658 | 922 ft | 126 kts | 37° |
| 2026-04-25 08:02 | 64.79298 | -147.90375 | 759 ft | 129 kts | 38° |
| 2026-04-25 08:02 | 64.79995 | -147.89090 | 577 ft | 125 kts | 38° |
| 2026-04-25 08:02 | 64.80680 | -147.87829 | 430 ft | 125 kts | 37° |
| 2026-04-25 08:02 | 64.81267 | -147.86750 | 426 ft | 86 kts | 38° |
| 2026-04-25 08:03 | 64.81609 | -147.86118 | 429 ft | 42 kts | 38° |
| 2026-04-25 08:03 | 64.81824 | -147.85726 | 434 ft | 33 kts | 37° |
| 2026-04-25 08:03 | 64.81922 | -147.85605 | 432 ft | 7 kts | 343° |
| 2026-04-25 08:03 | 64.81951 | -147.85693 | 430 ft | 7 kts | 304° |
| 2026-04-25 08:04 | 64.81960 | -147.85798 | 435 ft | 7 kts | 241° |
| 2026-04-25 08:04 | 64.81907 | -147.85895 | 432 ft | 12 kts | 218° |
| 2026-04-25 08:04 | 64.81843 | -147.86015 | 429 ft | 12 kts | 219° |
| 2026-04-25 08:04 | 64.81780 | -147.86131 | 429 ft | 11 kts | 217° |
| 2026-04-25 08:05 | 64.81719 | -147.86241 | 429 ft | 11 kts | 217° |
| 2026-04-25 08:05 | 64.81659 | -147.86352 | 425 ft | 11 kts | 219° |
| 2026-04-25 08:05 | 64.81605 | -147.86454 | 430 ft | 7 kts | 221° |
| 2026-04-25 08:05 | 64.81600 | -147.86539 | 426 ft | 6 kts | 298° |
| 2026-04-25 08:06 | 64.81614 | -147.86624 | 425 ft | 6 kts | 272° |
| 2026-04-25 08:06 | 64.81592 | -147.86695 | 423 ft | 6 kts | 219° |
| 2026-04-25 08:06 | 64.81561 | -147.86753 | 427 ft | 6 kts | 219° |
| 2026-04-25 08:06 | 64.81540 | -147.86839 | 435 ft | 8 kts | 265° |
| 2026-04-25 08:07 | 64.81581 | -147.86909 | 435 ft | 8 kts | 7° |
| 2026-04-25 08:07 | 64.81628 | -147.86867 | 430 ft | 5 kts | 18° |
| 2026-04-25 08:07 | 64.81650 | -147.86852 | 435 ft | 2 kts | 16° |
| 2026-04-25 08:07 | 64.81651 | -147.86852 | 433 ft | 0 kts | 16° |